Orense, Argentina
Current Conditions -  °F | °C
As of 8:00 PM on Monday 20 Oct 2014 (Local Time) from SAZM Reporting Station
Light Rain Light Rain  
Wind Chill: 57°   Ceiling: 5000
Heat Index: 57°   Visibility: 5mi
Dew Point: 52°   Wind: 12mph
Humidity: 82%   Direction: 70°ENE
Pressure: 30.09"   Gusts: NA
Location:  38.67°S, 59.78°W
Report Text: SAZM 202300Z 07010KT 8000 -RA BKN050 BKN200 14/11 Q1019
Loading
Personal Weather Stations






























Interactive Weather Map
Tropical Storm Tracking
New forecast layout! Learn more

10-Day Weather Forecast

Advertisements
Track Severe Weather on mobile